createdAt,value
2019-03-24T00:01:09.737Z,88.07
2019-03-24T00:03:40.678Z,95.03
2019-03-24T00:06:11.699Z,95.53
2019-03-24T00:08:42.657Z,92.80
2019-03-24T00:11:13.802Z,99.27
2019-03-24T00:13:44.812Z,100.50
2019-03-24T00:16:15.782Z,109.43
2019-03-24T00:18:46.720Z,109.23
2019-03-24T00:21:17.815Z,100.10
2019-03-24T00:23:49.008Z,110.63
2019-03-24T00:26:20.048Z,114.30
2019-03-24T00:28:51.031Z,123.57
2019-03-24T00:31:22.103Z,109.13
2019-03-24T00:33:53.071Z,122.57
2019-03-24T00:36:24.010Z,107.60
2019-03-24T00:38:55.053Z,107.33
2019-03-24T00:41:26.168Z,108.27
2019-03-24T00:43:57.133Z,100.10
2019-03-24T00:46:28.079Z,104.30
2019-03-24T00:48:59.023Z,104.80
2019-03-24T00:51:30.155Z,124.10
2019-03-24T00:54:01.143Z,105.60
2019-03-24T00:56:32.036Z,123.87
2019-03-24T00:59:02.972Z,121.90
2019-03-24T01:01:34.003Z,124.00
2019-03-24T01:04:05.055Z,111.97
2019-03-24T01:06:36.308Z,149.67
2019-03-24T01:09:09.289Z,169.87
2019-03-24T01:11:40.257Z,133.47
2019-03-24T01:14:11.166Z,129.80
2019-03-24T01:16:42.310Z,152.70
2019-03-24T01:19:13.322Z,157.53
2019-03-24T01:21:44.444Z,145.57
2019-03-24T01:24:15.391Z,148.77
2019-03-24T01:26:46.374Z,152.03
2019-03-24T01:29:18.588Z,147.13
2019-03-24T01:31:49.676Z,178.50
2019-03-24T01:34:20.933Z,174.57
2019-03-24T01:36:51.875Z,188.63
2019-03-24T01:39:22.912Z,190.20
2019-03-24T01:41:53.967Z,229.13
2019-03-24T01:44:24.996Z,219.00
2019-03-24T01:46:56.037Z,223.33
2019-03-24T01:49:27.051Z,198.87
2019-03-24T01:51:58.228Z,206.43
2019-03-24T01:54:30.388Z,205.67
2019-03-24T01:57:01.330Z,187.90
2019-03-24T01:59:32.167Z,206.50
2019-03-24T02:02:04.129Z,239.00
2019-03-24T02:04:35.069Z,244.03
2019-03-24T02:07:06.088Z,228.17
2019-03-24T02:09:37.065Z,233.73
2019-03-24T02:12:08.293Z,257.67
2019-03-24T02:14:39.237Z,261.83
2019-03-24T02:17:10.247Z,251.90
2019-03-24T02:19:41.212Z,237.50
2019-03-24T02:22:12.361Z,267.20
2019-03-24T02:24:43.370Z,269.53
2019-03-24T02:27:14.383Z,280.07
2019-03-24T02:29:45.377Z,255.63
2019-03-24T02:32:16.420Z,285.57
2019-03-24T02:34:47.449Z,280.23
2019-03-24T02:37:18.404Z,251.33
2019-03-24T02:39:49.544Z,269.17
2019-03-24T02:42:20.577Z,219.97
2019-03-24T02:44:51.524Z,258.27
2019-03-24T02:47:22.673Z,245.97
2019-03-24T02:49:53.608Z,281.77
2019-03-24T02:52:24.827Z,272.50
2019-03-24T02:54:55.793Z,286.13
2019-03-24T02:57:26.879Z,286.13
2019-03-24T02:59:57.851Z,286.70
2019-03-24T03:02:28.815Z,284.87
2019-03-24T03:04:59.755Z,289.33
2019-03-24T03:07:30.801Z,246.57
2019-03-24T03:10:01.836Z,289.67
2019-03-24T03:12:32.784Z,269.07
2019-03-24T03:15:03.715Z,274.77
2019-03-24T03:17:34.653Z,273.80
2019-03-24T03:20:06.205Z,274.53
2019-03-24T03:22:37.257Z,276.80
2019-03-24T03:25:08.619Z,228.43
2019-03-24T03:27:39.616Z,249.47
2019-03-24T03:30:11.069Z,256.10
2019-03-24T03:32:42.204Z,257.90
2019-03-24T03:35:13.713Z,228.80
2019-03-24T03:37:44.721Z,259.87
2019-03-24T03:40:15.974Z,243.23
2019-03-24T03:42:47.934Z,248.50
2019-03-24T03:45:27.455Z,231.90
2019-03-24T03:47:58.624Z,238.87
2019-03-24T03:50:29.705Z,255.43
2019-03-24T03:53:00.916Z,250.03
2019-03-24T03:55:31.845Z,215.70
2019-03-24T03:58:02.785Z,251.10
2019-03-24T04:00:38.280Z,236.90
2019-03-24T04:03:09.685Z,219.50
2019-03-24T04:05:40.618Z,226.53
2019-03-24T04:08:11.603Z,222.83
2019-03-24T04:10:42.671Z,210.43
2019-03-24T04:13:13.648Z,222.87
2019-03-24T04:15:44.579Z,242.73
2019-03-24T04:18:15.522Z,213.50
2019-03-24T04:20:46.528Z,228.50
2019-03-24T04:23:17.500Z,229.30
2019-03-24T04:25:48.449Z,211.47
2019-03-24T04:28:19.451Z,212.33
2019-03-24T04:30:50.591Z,196.13
2019-03-24T04:33:21.568Z,197.63
2019-03-24T04:36:12.368Z,208.20
2019-03-24T04:38:43.306Z,194.77
2019-03-24T04:41:14.251Z,194.20
2019-03-24T04:43:45.438Z,208.80
2019-03-24T04:46:16.327Z,178.67
2019-03-24T04:48:47.266Z,200.97
2019-03-24T04:51:18.311Z,194.93
2019-03-24T04:53:51.396Z,178.27
2019-03-24T04:56:22.341Z,182.87
2019-03-24T04:58:53.356Z,195.63
2019-03-24T05:01:24.379Z,184.70
2019-03-24T05:03:55.564Z,189.97
2019-03-24T05:06:26.815Z,184.10
2019-03-24T05:08:58.364Z,219.60
2019-03-24T05:11:29.405Z,190.43
2019-03-24T05:14:00.343Z,170.63
2019-03-24T05:16:31.283Z,174.83
2019-03-24T05:19:02.323Z,189.23
2019-03-24T05:21:33.161Z,160.77
2019-03-24T05:24:04.167Z,199.07
2019-03-24T05:26:35.450Z,183.27
2019-03-24T05:29:06.561Z,190.20
2019-03-24T05:31:37.739Z,189.10
2019-03-24T05:34:08.676Z,191.90
2019-03-24T05:36:39.615Z,192.40
2019-03-24T05:39:10.551Z,182.53
2019-03-24T05:41:41.559Z,199.57
2019-03-24T05:44:12.533Z,181.80
2019-03-24T05:46:43.677Z,176.47
2019-03-24T05:49:14.690Z,201.33
2019-03-24T05:51:45.663Z,187.87
2019-03-24T05:54:17.005Z,177.00
2019-03-24T05:56:48.014Z,183.20
2019-03-24T05:59:18.992Z,166.77
2019-03-24T06:01:50.948Z,161.63
2019-03-24T06:04:21.943Z,186.63
2019-03-24T06:06:53.033Z,168.63
2019-03-24T06:09:24.052Z,185.43
2019-03-24T06:11:55.016Z,162.47
2019-03-24T06:14:25.949Z,169.67
2019-03-24T06:16:56.889Z,155.93
2019-03-24T06:19:27.727Z,157.43
2019-03-24T06:21:59.700Z,149.17
2019-03-24T06:24:30.656Z,135.87
2019-03-24T06:27:01.649Z,133.60
2019-03-24T06:29:32.915Z,163.93
2019-03-24T06:32:04.003Z,152.40
2019-03-24T06:34:35.043Z,143.63
2019-03-24T06:37:05.939Z,135.50
2019-03-24T06:39:37.082Z,157.20
2019-03-24T06:42:08.093Z,145.60
2019-03-24T06:44:39.065Z,151.63
2019-03-24T06:47:10.102Z,149.30
2019-03-24T06:49:42.171Z,147.40
2019-03-24T06:52:14.338Z,132.70
2019-03-24T06:54:45.378Z,135.53
2019-03-24T06:57:17.039Z,119.60
2019-03-24T06:59:47.976Z,113.70
2019-03-24T07:02:18.910Z,109.50
2019-03-24T07:04:49.952Z,104.87
2019-03-24T07:07:20.950Z,103.67
2019-03-24T07:09:51.834Z,85.60
2019-03-24T07:12:22.875Z,92.13
2019-03-24T07:14:53.882Z,76.43
2019-03-24T07:17:24.853Z,80.37
2019-03-24T07:19:55.996Z,76.83
2019-03-24T07:22:27.118Z,66.80
2019-03-24T07:24:58.079Z,72.80
2019-03-24T07:27:29.018Z,67.80
2019-03-24T07:30:01.406Z,63.73
2019-03-24T07:32:32.697Z,60.30
2019-03-24T07:35:03.589Z,51.00
2019-03-24T07:37:34.823Z,54.13
2019-03-24T07:40:06.689Z,56.23
2019-03-24T07:42:38.648Z,49.63
2019-03-24T07:45:09.790Z,53.87
2019-03-24T07:47:40.732Z,51.20
2019-03-24T07:50:12.079Z,45.07
2019-03-24T07:52:44.042Z,41.50
2019-03-24T07:55:15.182Z,43.57
2019-03-24T07:57:46.131Z,43.27
2019-03-24T08:00:23.207Z,42.53
2019-03-24T08:02:54.300Z,42.07
2019-03-24T08:05:25.235Z,44.40
2019-03-24T08:07:56.128Z,47.60
2019-03-24T08:10:27.241Z,45.57
2019-03-24T08:12:58.300Z,45.17
2019-03-24T08:15:29.564Z,42.87
2019-03-24T08:18:00.567Z,49.57
2019-03-24T08:20:31.749Z,39.60
2019-03-24T08:23:02.686Z,44.20
2019-03-24T08:25:33.652Z,40.13
2019-03-24T08:28:04.745Z,41.63
2019-03-24T08:30:39.698Z,44.63
2019-03-24T08:33:10.782Z,44.53
2019-03-24T08:35:41.835Z,35.77
2019-03-24T08:38:12.830Z,51.43
2019-03-24T08:40:44.014Z,39.03
2019-03-24T08:43:15.005Z,43.23
2019-03-24T08:45:45.945Z,38.90
2019-03-24T08:48:16.885Z,35.97
2019-03-24T08:50:47.917Z,37.07
2019-03-24T08:53:18.869Z,43.13
2019-03-24T08:55:50.216Z,40.77
2019-03-24T08:58:21.227Z,39.47
2019-03-24T09:00:52.299Z,38.83
2019-03-24T09:03:24.266Z,36.50
2019-03-24T09:05:55.507Z,42.87
2019-03-24T09:08:26.444Z,39.47
2019-03-24T09:10:57.451Z,36.33
2019-03-24T09:13:28.481Z,38.00
2019-03-24T09:15:59.364Z,31.37
2019-03-24T09:18:30.304Z,30.90
2019-03-24T09:21:01.416Z,31.23
2019-03-24T09:23:32.385Z,33.17
2019-03-24T09:26:03.322Z,37.83
2019-03-24T09:28:34.270Z,37.67
2019-03-24T09:31:05.387Z,32.53
2019-03-24T09:33:36.761Z,31.67
2019-03-24T09:36:07.694Z,31.63
2019-03-24T09:38:38.703Z,25.80
2019-03-24T09:41:09.675Z,29.07
2019-03-24T09:43:40.863Z,35.30
2019-03-24T09:46:11.759Z,29.93
2019-03-24T09:48:42.796Z,32.20
2019-03-24T09:51:13.738Z,31.90
2019-03-24T09:53:44.882Z,29.90
2019-03-24T09:56:15.998Z,33.67
2019-03-24T09:58:46.964Z,22.87
2019-03-24T10:01:17.904Z,22.17
2019-03-24T10:03:49.867Z,21.47
2019-03-24T10:06:20.807Z,28.40
2019-03-24T10:08:51.745Z,32.37
2019-03-24T10:11:42.855Z,21.10
2019-03-24T10:14:13.840Z,16.90
2019-03-24T10:16:44.741Z,20.00
2019-03-24T10:19:15.579Z,21.10
2019-03-24T10:21:46.683Z,21.53
2019-03-24T10:24:17.652Z,21.13
2019-03-24T10:26:48.899Z,21.80
2019-03-24T10:29:21.111Z,23.30
2019-03-24T10:31:52.179Z,17.83
2019-03-24T10:34:23.195Z,25.50
2019-03-24T10:36:54.090Z,17.77
2019-03-24T10:39:25.029Z,22.20
2019-03-24T10:41:57.000Z,16.80
2019-03-24T10:44:28.055Z,17.12
2019-03-24T10:46:58.972Z,14.27
2019-03-24T10:49:29.913Z,16.55
2019-03-24T10:52:01.872Z,16.53
2019-03-24T10:54:32.830Z,15.33
2019-03-24T10:57:05.421Z,17.70
2019-03-24T10:59:36.505Z,15.05
2019-03-24T11:02:07.677Z,15.13
2019-03-24T11:04:38.619Z,15.70
2019-03-24T11:07:09.727Z,17.40
2019-03-24T11:09:40.699Z,14.83
2019-03-24T11:12:13.685Z,15.38
2019-03-24T11:14:44.700Z,13.98
2019-03-24T11:17:15.815Z,13.55
2019-03-24T11:19:47.602Z,13.98
2019-03-24T11:22:18.569Z,15.18
2019-03-24T11:24:49.511Z,11.75
2019-03-24T11:27:20.548Z,9.65
2019-03-24T11:29:51.487Z,14.07
2019-03-24T11:32:22.506Z,13.03
2019-03-24T11:34:53.673Z,11.60
2019-03-24T11:37:24.678Z,11.75
2019-03-24T11:39:55.652Z,11.25
2019-03-24T11:42:28.072Z,12.78
2019-03-24T11:44:58.964Z,12.13
2019-03-24T11:47:29.951Z,11.08
2019-03-24T11:50:00.920Z,7.50
2019-03-24T11:52:32.195Z,10.38
2019-03-24T11:55:03.231Z,8.53
2019-03-24T11:57:34.242Z,10.38
2019-03-24T12:00:05.938Z,10.65
2019-03-24T12:02:37.186Z,9.68
2019-03-24T12:05:08.524Z,10.95
2019-03-24T12:07:39.463Z,11.38
2019-03-24T12:10:11.119Z,10.98
2019-03-24T12:12:43.091Z,13.25
2019-03-24T12:15:14.257Z,9.85
2019-03-24T12:17:45.247Z,14.58
2019-03-24T12:20:16.513Z,10.15
2019-03-24T12:22:48.686Z,10.90
2019-03-24T12:25:19.627Z,11.63
2019-03-24T12:27:50.560Z,9.78
2019-03-24T12:30:22.020Z,10.15
2019-03-24T12:32:53.167Z,9.00
2019-03-24T12:35:24.244Z,9.43
2019-03-24T12:37:55.139Z,11.55
2019-03-24T12:40:26.076Z,13.08
2019-03-24T12:42:58.141Z,10.43
2019-03-24T12:45:29.164Z,9.13
2019-03-24T12:48:00.383Z,7.28
2019-03-24T12:50:31.954Z,10.55
2019-03-24T12:53:02.921Z,11.12
2019-03-24T12:55:33.857Z,13.50
2019-03-24T12:58:04.911Z,10.85
2019-03-24T13:00:38.091Z,12.73
2019-03-24T13:03:09.239Z,13.32
2019-03-24T13:05:40.253Z,11.05
2019-03-24T13:08:18.507Z,10.88
2019-03-24T13:10:49.639Z,13.18
2019-03-24T13:13:20.875Z,11.57
2019-03-24T13:15:55.772Z,8.33
2019-03-24T13:18:26.690Z,11.57
2019-03-24T13:20:57.751Z,9.95
2019-03-24T13:23:28.738Z,12.13
2019-03-24T13:25:59.684Z,7.58
2019-03-24T13:28:30.607Z,9.40
2019-03-24T13:31:01.619Z,11.60
2019-03-24T13:33:32.711Z,10.72
2019-03-24T13:36:11.358Z,9.90
2019-03-24T13:38:42.246Z,10.75
2019-03-24T13:41:13.355Z,11.83
2019-03-24T13:43:44.318Z,11.18
2019-03-24T13:46:15.267Z,10.28
2019-03-24T13:48:46.459Z,8.80
2019-03-24T13:51:17.355Z,8.75
2019-03-24T13:53:48.398Z,10.68
2019-03-24T13:56:19.536Z,12.47
2019-03-24T13:58:50.547Z,13.80
2019-03-24T14:01:23.055Z,9.13
2019-03-24T14:03:55.013Z,11.33
2019-03-24T14:06:32.189Z,11.18
2019-03-24T14:09:04.495Z,7.87
2019-03-24T14:11:35.408Z,11.90
2019-03-24T14:14:06.514Z,9.45
2019-03-24T14:16:37.570Z,9.18
2019-03-24T14:19:08.498Z,13.08
2019-03-24T14:21:39.473Z,10.13
2019-03-24T14:24:10.414Z,17.37
2019-03-24T14:26:41.419Z,12.33
2019-03-24T14:29:12.398Z,9.95
2019-03-24T14:31:43.638Z,13.62
2019-03-24T14:34:14.854Z,11.03
2019-03-24T14:36:45.876Z,12.47
2019-03-24T14:39:16.772Z,12.60
2019-03-24T14:41:49.753Z,13.13
2019-03-24T14:44:20.691Z,11.40
2019-03-24T14:46:51.627Z,10.58
2019-03-24T14:49:22.623Z,11.50
2019-03-24T14:51:53.607Z,14.73
2019-03-24T14:54:25.857Z,14.07
2019-03-24T14:56:56.921Z,15.38
2019-03-24T14:59:28.271Z,10.50
2019-03-24T15:02:00.235Z,11.75
2019-03-24T15:04:31.247Z,11.63
2019-03-24T15:07:02.213Z,12.50
2019-03-24T15:09:33.154Z,13.13
2019-03-24T15:12:05.189Z,11.38
2019-03-24T15:14:36.163Z,14.53
2019-03-24T15:17:07.094Z,9.53
2019-03-24T15:19:39.671Z,15.08
2019-03-24T15:22:11.796Z,12.93
2019-03-24T15:24:42.680Z,14.43
2019-03-24T15:27:13.716Z,16.25
2019-03-24T15:29:44.655Z,10.68
2019-03-24T15:32:15.595Z,10.60
2019-03-24T15:34:46.626Z,14.60
2019-03-24T15:37:17.682Z,12.63
2019-03-24T15:39:48.615Z,8.78
2019-03-24T15:42:20.645Z,9.38
2019-03-24T15:44:51.520Z,11.10
2019-03-24T15:47:22.567Z,11.48
2019-03-24T15:49:54.829Z,10.20
2019-03-24T15:52:26.043Z,11.53
2019-03-24T15:54:57.015Z,16.07
2019-03-24T15:57:27.956Z,10.90
2019-03-24T15:59:58.790Z,9.15
2019-03-24T16:02:31.061Z,10.15
2019-03-24T16:05:02.003Z,9.93
2019-03-24T16:07:33.010Z,8.18
2019-03-24T16:10:03.979Z,15.60
2019-03-24T16:12:36.020Z,9.83
2019-03-24T16:15:08.443Z,13.40
2019-03-24T16:17:40.892Z,14.05
2019-03-24T16:20:11.831Z,8.88
2019-03-24T16:22:42.842Z,9.18
2019-03-24T16:25:15.299Z,12.65
2019-03-24T16:27:46.187Z,7.55
2019-03-24T16:30:17.226Z,11.35
2019-03-24T16:32:49.216Z,9.85
2019-03-24T16:35:20.233Z,11.65
2019-03-24T16:37:51.216Z,9.65
2019-03-24T16:40:22.180Z,13.53
2019-03-24T16:42:53.150Z,10.55
2019-03-24T16:45:25.521Z,11.10
2019-03-24T16:47:56.563Z,11.75
2019-03-24T16:50:27.577Z,7.33
2019-03-24T16:52:58.546Z,10.70
2019-03-24T16:55:29.549Z,6.15
2019-03-24T16:58:00.526Z,13.48
2019-03-24T17:00:31.874Z,16.97
2019-03-24T17:03:02.812Z,15.80
2019-03-24T17:05:33.763Z,133.73
2019-03-24T17:08:04.763Z,45.70
2019-03-24T17:10:35.731Z,19.10
2019-03-24T17:13:06.775Z,9.13
2019-03-24T17:15:37.922Z,13.80
2019-03-24T17:18:08.943Z,25.30
2019-03-24T17:20:39.904Z,9.27
2019-03-24T17:23:10.941Z,14.27
2019-03-24T17:25:41.884Z,11.93
2019-03-24T17:28:12.875Z,14.97
2019-03-24T17:30:43.846Z,14.07
2019-03-24T17:33:14.799Z,19.20
2019-03-24T17:35:47.678Z,14.10
2019-03-24T17:38:18.840Z,14.30
2019-03-24T17:40:49.969Z,12.77
2019-03-24T17:43:21.216Z,14.77
2019-03-24T17:45:52.327Z,11.13
2019-03-24T17:48:23.298Z,14.87
2019-03-24T17:50:54.235Z,13.57
2019-03-24T17:53:26.213Z,11.93
2019-03-24T17:55:57.139Z,12.23
2019-03-24T17:58:28.127Z,17.33
2019-03-24T18:00:59.632Z,12.10
2019-03-24T18:03:30.673Z,22.30
2019-03-24T18:06:01.715Z,15.60
2019-03-24T18:08:32.658Z,19.10
2019-03-24T18:11:03.900Z,19.33
2019-03-24T18:13:34.853Z,11.17
2019-03-24T18:16:19.092Z,20.83
2019-03-24T18:18:50.043Z,8.83
2019-03-24T18:21:21.149Z,13.27
2019-03-24T18:23:52.112Z,12.77
2019-03-24T18:26:23.055Z,14.40
2019-03-24T18:28:54.089Z,16.40
2019-03-24T18:31:25.099Z,12.93
2019-03-24T18:33:56.071Z,17.50
2019-03-24T18:36:27.420Z,10.40
2019-03-24T18:38:58.475Z,13.70
2019-03-24T18:41:29.406Z,11.47
2019-03-24T18:44:00.339Z,12.30
2019-03-24T18:46:31.380Z,22.03
2019-03-24T18:49:03.549Z,13.37
2019-03-24T18:51:34.593Z,11.37
2019-03-24T18:54:05.631Z,9.87
2019-03-24T18:56:36.579Z,17.73
2019-03-24T18:59:07.511Z,22.27
2019-03-24T19:01:39.168Z,11.33
2019-03-24T19:04:10.104Z,15.37
2019-03-24T19:06:41.043Z,20.23
2019-03-24T19:09:12.085Z,13.30
2019-03-24T19:11:43.033Z,18.87
2019-03-24T19:14:34.034Z,18.53
2019-03-24T19:17:05.076Z,18.80
2019-03-24T19:19:36.014Z,14.20
2019-03-24T19:22:07.128Z,17.23
2019-03-24T19:24:38.300Z,11.87
2019-03-24T19:27:09.385Z,15.60
2019-03-24T19:29:40.390Z,14.50
2019-03-24T19:32:12.683Z,14.37
2019-03-24T19:34:43.744Z,14.13
2019-03-24T19:37:15.044Z,20.47
2019-03-24T19:39:46.127Z,17.10
2019-03-24T19:42:17.435Z,21.50
2019-03-24T19:44:48.651Z,16.50
2019-03-24T19:47:19.928Z,24.73
2019-03-24T19:49:50.981Z,17.23
2019-03-24T19:52:22.133Z,19.93
2019-03-24T19:54:53.176Z,30.00
2019-03-24T19:57:24.501Z,16.00
2019-03-24T19:59:55.689Z,18.73
2019-03-24T20:02:26.986Z,13.97
2019-03-24T20:04:58.007Z,18.33
2019-03-24T20:07:29.223Z,20.97
2019-03-24T20:10:00.359Z,20.90
2019-03-24T20:12:31.435Z,18.27
2019-03-24T20:15:02.410Z,22.00
2019-03-24T20:17:33.552Z,27.23
2019-03-24T20:20:04.904Z,22.93
2019-03-24T20:22:36.967Z,26.93
2019-03-24T20:25:08.315Z,36.90
2019-03-24T20:27:39.255Z,28.07
2019-03-24T20:30:10.852Z,25.67
2019-03-24T20:32:42.770Z,30.63
2019-03-24T20:35:13.970Z,24.83
2019-03-24T20:37:45.463Z,26.13
2019-03-24T20:40:17.531Z,29.53
2019-03-24T20:42:49.681Z,32.60
2019-03-24T20:45:21.998Z,29.00
2019-03-24T20:47:53.063Z,32.07
2019-03-24T20:50:24.029Z,33.87
2019-03-24T20:53:03.637Z,35.80
2019-03-24T20:55:28.019Z,33.83
2019-03-24T20:57:59.017Z,37.83
2019-03-24T21:00:37.446Z,33.67
2019-03-24T21:03:09.912Z,38.77
2019-03-24T21:05:40.948Z,29.57
2019-03-24T21:08:12.000Z,42.37
2019-03-24T21:10:43.016Z,32.03
2019-03-24T21:13:13.970Z,33.07
2019-03-24T21:15:45.024Z,44.03
2019-03-24T21:18:16.064Z,42.20
2019-03-24T21:20:47.156Z,36.50
2019-03-24T21:23:28.860Z,43.70
2019-03-24T21:25:50.723Z,47.43
2019-03-24T21:28:21.754Z,44.33
2019-03-24T21:30:52.795Z,44.20
2019-03-24T21:33:25.035Z,39.33
2019-03-24T21:35:56.106Z,43.03
2019-03-24T21:38:27.216Z,47.93
2019-03-24T21:40:58.808Z,45.20
2019-03-24T21:43:29.949Z,39.23
2019-03-24T21:46:00.999Z,35.80
2019-03-24T21:48:31.928Z,41.87
2019-03-24T21:51:02.873Z,40.93
2019-03-24T21:53:40.613Z,49.07
2019-03-24T21:56:07.517Z,45.13
2019-03-24T21:58:38.561Z,46.33
2019-03-24T22:01:09.696Z,48.80
2019-03-24T22:03:41.664Z,50.03
2019-03-24T22:06:29.037Z,42.87
2019-03-24T22:08:57.426Z,40.53
2019-03-24T22:11:28.401Z,47.17
2019-03-24T22:13:59.445Z,49.57
2019-03-24T22:16:30.382Z,41.57
2019-03-24T22:19:01.323Z,40.77
2019-03-24T22:21:32.362Z,53.43
2019-03-24T22:24:03.476Z,47.77
2019-03-24T22:26:34.753Z,58.93
2019-03-24T22:29:05.697Z,46.90
2019-03-24T22:31:36.703Z,48.37
2019-03-24T22:34:07.979Z,50.13
2019-03-24T22:36:39.214Z,51.50
2019-03-24T22:39:10.635Z,56.80
2019-03-24T22:41:43.856Z,50.43
2019-03-24T22:44:14.372Z,45.23
2019-03-24T22:46:45.343Z,39.20
2019-03-24T22:49:16.480Z,47.37
2019-03-24T22:51:47.600Z,51.33
2019-03-24T22:54:18.563Z,48.07
2019-03-24T22:56:50.000Z,44.70
2019-03-24T22:59:21.055Z,39.27
2019-03-24T23:01:53.327Z,44.37
2019-03-24T23:04:24.470Z,43.93
2019-03-24T23:06:55.418Z,48.57
2019-03-24T23:09:26.451Z,36.17
2019-03-24T23:11:57.538Z,42.73
2019-03-24T23:14:28.430Z,43.60
2019-03-24T23:16:59.576Z,45.03
2019-03-24T23:19:30.594Z,37.50
2019-03-24T23:22:01.657Z,45.90
2019-03-24T23:24:40.352Z,38.03
2019-03-24T23:27:11.527Z,38.17
2019-03-24T23:29:42.585Z,34.47
2019-03-24T23:32:13.712Z,32.37
2019-03-24T23:34:44.717Z,34.90
2019-03-24T23:37:15.757Z,30.43
2019-03-24T23:39:46.947Z,33.53
2019-03-24T23:42:18.033Z,33.67
2019-03-24T23:44:48.914Z,33.63
2019-03-24T23:47:19.964Z,27.10
2019-03-24T23:49:50.904Z,36.17
2019-03-24T23:52:21.938Z,26.17
2019-03-24T23:54:52.978Z,30.37
2019-03-24T23:57:24.020Z,36.40
2019-03-24T23:59:54.960Z,30.73
